Time;durP1;ratioP1;P1;durP2;ratioP2;P2;SDS_P1;SDS_P2;PMS_P1;PMS_P2;Temp;Humidity;BMP_temperature;BMP_pressure;BME280_temperature;BME280_humidity;BME280_pressure;Samples;Min_cycle;Max_cycle;Signal;HPM_P1;HPM_P2
2021/11/20 00:01:02;;;;;;;20.70;4.30;;;11.30;93.00;;;;;;5040915;28;20724;-89
2021/11/20 00:03:28;;;;;;;18.97;3.57;;;11.40;93.10;;;;;;5041184;28;20172;-89
2021/11/20 00:05:55;;;;;;;23.00;4.60;;;11.30;93.10;;;;;;5041056;28;20290;-89
2021/11/20 00:08:22;;;;;;;21.47;4.90;;;11.30;93.10;;;;;;5041159;28;20626;-89
2021/11/20 00:10:52;;;;;;;39.80;5.37;;;11.30;93.20;;;;;;5040442;28;20250;-89
2021/11/20 00:13:18;;;;;;;21.53;4.03;;;11.30;93.20;;;;;;5058433;28;20223;-89
2021/11/20 00:15:48;;;;;;;22.57;3.77;;;11.30;93.30;;;;;;5058153;28;20228;-89
2021/11/20 00:18:15;;;;;;;33.27;4.93;;;11.30;93.40;;;;;;5040729;28;20245;-89
2021/11/20 00:20:48;;;;;;;25.70;4.13;;;11.30;93.40;;;;;;5040368;28;20176;-89
2021/11/20 00:23:18;;;;;;;24.03;4.23;;;11.30;93.50;;;;;;5058115;28;20156;-89
2021/11/20 00:25:49;;;;;;;29.50;4.50;;;11.30;93.40;;;;;;5039753;28;20695;-89
2021/11/20 00:28:21;;;;;;;19.63;3.57;;;11.30;93.30;;;;;;5040150;28;20543;-89
2021/11/20 00:30:57;;;;;;;19.93;4.00;;;11.30;93.20;;;;;;5040060;28;20708;-89
2021/11/20 00:33:26;;;;;;;30.07;6.60;;;11.30;93.20;;;;;;5040237;28;20175;-89
2021/11/20 00:35:55;;;;;;;22.40;5.70;;;11.30;93.40;;;;;;5039864;28;20311;-89
2021/11/20 00:38:21;;;;;;;30.50;5.13;;;11.20;93.50;;;;;;5039844;28;20204;-89
2021/11/20 00:40:59;;;;;;;22.37;5.33;;;11.30;93.60;;;;;;5057738;28;20176;-89
2021/11/20 00:43:26;;;;;;;27.60;5.43;;;11.30;93.60;;;;;;5039761;28;20174;-89
2021/11/20 00:45:52;;;;;;;20.77;4.83;;;11.30;93.60;;;;;;5057904;28;20211;-89
2021/11/20 00:48:20;;;;;;;20.20;5.20;;;11.20;93.60;;;;;;5057524;28;20176;-89
2021/11/20 00:50:50;;;;;;;18.40;4.70;;;11.20;93.70;;;;;;5057693;28;20177;-89
2021/11/20 00:53:16;;;;;;;22.73;6.20;;;11.30;93.70;;;;;;5039740;28;20267;-89
2021/11/20 00:55:42;;;;;;;28.90;6.30;;;11.30;93.70;;;;;;5039656;28;20290;-88
2021/11/20 00:58:08;;;;;;;23.67;6.83;;;11.20;93.80;;;;;;5056551;28;20207;-89
2021/11/20 01:00:40;;;;;;;25.93;7.37;;;11.20;93.80;;;;;;5038656;28;20187;-89
2021/11/20 01:03:07;;;;;;;27.10;7.40;;;11.20;93.90;;;;;;5057644;28;20639;-89
2021/11/20 01:05:33;;;;;;;24.93;6.17;;;11.20;94.00;;;;;;5039896;28;20694;-90
2021/11/20 01:07:59;;;;;;;27.47;6.67;;;11.20;94.00;;;;;;5040101;28;20555;-90
2021/11/20 01:10:28;;;;;;;22.07;6.20;;;11.20;93.90;;;;;;5039721;28;20671;-90
2021/11/20 01:12:54;;;;;;;22.80;6.97;;;11.20;94.00;;;;;;5039909;28;20179;-90
2021/11/20 01:15:34;;;;;;;20.47;6.77;;;11.20;94.00;;;;;;5057694;28;20270;-89
2021/11/20 01:18:01;;;;;;;28.03;7.67;;;11.20;94.00;;;;;;5057458;28;20198;-89
2021/11/20 01:20:27;;;;;;;26.93;8.90;;;11.20;94.10;;;;;;5057538;28;20180;-89
2021/11/20 01:22:54;;;;;;;23.33;7.93;;;11.10;94.10;;;;;;5039669;28;20179;-89
2021/11/20 01:25:20;;;;;;;21.27;7.80;;;11.10;94.20;;;;;;5039366;28;20276;-89
2021/11/20 01:27:47;;;;;;;27.90;7.87;;;11.10;94.30;;;;;;5039406;28;20616;-89
2021/11/20 01:30:13;;;;;;;32.97;8.90;;;11.10;94.30;;;;;;5057212;28;20179;-89
2021/11/20 01:32:39;;;;;;;18.87;7.33;;;11.10;94.30;;;;;;5040039;28;20180;-89
2021/11/20 01:35:07;;;;;;;22.93;8.13;;;11.10;94.30;;;;;;5039386;28;20187;-89
2021/11/20 01:37:36;;;;;;;21.90;7.97;;;11.10;94.20;;;;;;5039533;28;20203;-89
2021/11/20 01:40:05;;;;;;;23.70;7.57;;;11.10;94.20;;;;;;5057338;28;20702;-89
2021/11/20 01:42:31;;;;;;;21.03;8.57;;;11.10;94.20;;;;;;5057025;28;20241;-89
2021/11/20 01:45:32;;;;;;;24.23;7.57;;;11.10;94.20;;;;;;5038534;28;20180;-89
2021/11/20 01:48:35;;;;;;;27.20;8.03;;;11.10;94.20;;;;;;5039361;28;20190;-89
2021/11/20 01:51:19;;;;;;;30.70;9.27;;;11.10;94.30;;;;;;5056591;28;20178;-89
2021/11/20 01:54:25;;;;;;;26.60;6.97;;;11.10;94.20;;;;;;5038708;28;20206;-89
2021/11/20 01:56:59;;;;;;;22.33;7.03;;;11.10;94.10;;;;;;5038807;28;20321;-89
2021/11/20 01:59:36;;;;;;;15.50;6.70;;;11.10;94.00;;;;;;5056668;28;20198;-89
2021/11/20 02:02:22;;;;;;;25.20;9.43;;;11.10;94.00;;;;;;5038881;28;20175;-89
2021/11/20 02:04:59;;;;;;;26.67;7.87;;;11.10;94.00;;;;;;5038895;28;20230;-89
2021/11/20 02:07:36;;;;;;;31.60;8.53;;;11.10;94.00;;;;;;5038781;28;20202;-89
2021/11/20 02:10:22;;;;;;;33.80;8.70;;;11.10;94.00;;;;;;5038368;28;20255;-89
2021/11/20 02:12:59;;;;;;;27.70;8.83;;;11.10;93.90;;;;;;5038110;28;20176;-89
2021/11/20 02:15:50;;;;;;;28.10;8.67;;;11.10;93.90;;;;;;5038210;28;20282;-89
2021/11/20 02:18:19;;;;;;;27.60;8.70;;;11.10;93.90;;;;;;5037684;28;20219;-89
2021/11/20 02:20:51;;;;;;;24.50;8.57;;;11.10;93.90;;;;;;5038293;28;20172;-89
2021/11/20 02:23:17;;;;;;;37.03;9.87;;;11.10;93.90;;;;;;5038128;28;20255;-89
2021/11/20 02:25:42;;;;;;;32.87;10.53;;;11.10;93.90;;;;;;5038191;28;20695;-89
2021/11/20 02:28:09;;;;;;;24.83;9.07;;;11.10;93.90;;;;;;5038138;28;20230;-89
2021/11/20 02:30:36;;;;;;;25.53;8.07;;;11.10;93.80;;;;;;5038165;28;20702;-89
2021/11/20 02:33:06;;;;;;;28.63;8.73;;;11.10;93.60;;;;;;5037720;28;20184;-89
2021/11/20 02:35:45;;;;;;;34.40;9.97;;;11.10;93.50;;;;;;5037690;28;20216;-90
2021/11/20 02:38:19;;;;;;;32.27;9.37;;;11.10;93.50;;;;;;5055637;28;20298;-89
2021/11/20 02:40:45;;;;;;;20.87;6.97;;;11.10;93.50;;;;;;5055369;28;20161;-89
2021/11/20 02:43:12;;;;;;;23.57;7.87;;;11.20;93.40;;;;;;5037830;28;20301;-89
2021/11/20 02:45:49;;;;;;;37.40;7.97;;;11.10;93.30;;;;;;5055283;28;20196;-89
2021/11/20 02:48:15;;;;;;;29.87;7.90;;;11.10;93.20;;;;;;5037621;28;20198;-89
2021/11/20 02:50:45;;;;;;;33.87;7.90;;;11.20;93.30;;;;;;5037307;28;20191;-89
2021/11/20 02:53:18;;;;;;;24.13;8.10;;;11.10;93.20;;;;;;5037710;28;20198;-89
2021/11/20 02:55:47;;;;;;;28.77;8.90;;;11.10;93.20;;;;;;5055462;28;20196;-89
2021/11/20 02:58:14;;;;;;;28.50;9.87;;;11.20;93.20;;;;;;5037633;28;20257;-89
2021/11/20 03:00:41;;;;;;;32.07;9.20;;;11.20;93.10;;;;;;5037287;28;20175;-89
2021/11/20 03:03:06;;;;;;;30.57;9.53;;;11.20;93.10;;;;;;5055367;28;20176;-89
2021/11/20 03:05:32;;;;;;;41.93;12.73;;;11.20;93.20;;;;;;5037250;28;20253;-89
2021/11/20 03:07:58;;;;;;;33.40;12.63;;;11.20;93.20;;;;;;5055267;28;20594;-89
2021/11/20 03:10:24;;;;;;;33.67;11.33;;;11.20;93.20;;;;;;5037369;28;20238;-89
2021/11/20 03:12:50;;;;;;;34.67;11.57;;;11.20;93.20;;;;;;5037210;28;20664;-89
2021/11/20 03:15:16;;;;;;;32.77;11.70;;;11.20;93.30;;;;;;5037125;28;20652;-89
2021/11/20 03:17:42;;;;;;;35.20;12.10;;;11.10;93.40;;;;;;5036844;28;20207;-89
2021/11/20 03:20:11;;;;;;;34.30;12.97;;;11.20;93.40;;;;;;5037311;28;20180;-89
2021/11/20 03:23:04;;;;;;;34.37;11.60;;;11.10;93.50;;;;;;5036373;28;20180;-89
2021/11/20 03:25:30;;;;;;;41.00;13.30;;;11.10;93.50;;;;;;5028655;28;20313;-89
2021/11/20 03:27:56;;;;;;;41.93;13.67;;;11.10;93.50;;;;;;5036990;28;20207;-89
2021/11/20 03:30:22;;;;;;;32.40;12.40;;;11.10;93.50;;;;;;5055325;28;20641;-89
2021/11/20 03:32:47;;;;;;;40.67;12.77;;;11.10;93.50;;;;;;5037012;28;20184;-89
2021/11/20 03:35:13;;;;;;;38.50;12.97;;;11.10;93.60;;;;;;5054898;28;20180;-89
2021/11/20 03:37:40;;;;;;;44.17;13.97;;;11.10;93.60;;;;;;5036819;28;20563;-89
2021/11/20 03:40:09;;;;;;;45.90;13.60;;;11.00;93.60;;;;;;5036833;28;20179;-89
2021/11/20 03:42:35;;;;;;;43.10;11.90;;;11.00;93.50;;;;;;5054486;28;20641;-89
2021/11/20 03:45:01;;;;;;;40.23;11.50;;;11.10;93.50;;;;;;5036743;28;20176;-89
2021/11/20 03:47:26;;;;;;;44.40;11.90;;;11.00;93.50;;;;;;5036837;28;20227;-89
2021/11/20 03:49:52;;;;;;;32.27;10.40;;;11.00;93.40;;;;;;5036707;28;20183;-89
2021/11/20 03:52:18;;;;;;;38.00;9.97;;;11.00;93.30;;;;;;5054559;28;20172;-89
2021/11/20 03:54:45;;;;;;;39.37;11.10;;;10.90;93.30;;;;;;5036700;28;20176;-89
2021/11/20 03:57:11;;;;;;;37.20;10.33;;;10.90;93.30;;;;;;5054509;28;20187;-89
2021/11/20 03:59:37;;;;;;;27.30;9.83;;;10.80;93.30;;;;;;5036372;28;20680;-89
2021/11/20 04:02:04;;;;;;;29.33;10.03;;;10.80;93.40;;;;;;5054283;28;20176;-89
2021/11/20 04:04:30;;;;;;;23.73;8.80;;;10.80;93.50;;;;;;5036535;28;20598;-89
2021/11/20 04:06:56;;;;;;;34.37;9.80;;;10.80;93.60;;;;;;5036685;28;20207;-89
2021/11/20 04:09:22;;;;;;;36.37;10.23;;;10.80;93.60;;;;;;5036442;28;20180;-89
2021/11/20 04:11:50;;;;;;;32.33;10.63;;;10.80;93.60;;;;;;5054456;28;20179;-89
2021/11/20 04:14:18;;;;;;;40.47;11.27;;;10.80;93.60;;;;;;5036975;28;20191;-89
2021/11/20 04:16:45;;;;;;;28.83;10.63;;;10.90;93.60;;;;;;5036686;28;20196;-89
2021/11/20 04:19:10;;;;;;;32.33;12.27;;;10.90;93.60;;;;;;5036620;28;20204;-89
2021/11/20 04:21:38;;;;;;;33.70;13.27;;;10.90;93.50;;;;;;5054339;28;20239;-89
2021/11/20 04:24:05;;;;;;;37.17;12.33;;;10.90;93.50;;;;;;5036329;28;20203;-89
2021/11/20 04:26:31;;;;;;;42.63;16.27;;;10.90;93.60;;;;;;5036307;28;20679;-89
2021/11/20 04:28:57;;;;;;;38.53;20.67;;;10.90;93.70;;;;;;5054442;28;20662;-89
2021/11/20 04:31:23;;;;;;;35.83;20.53;;;10.90;93.60;;;;;;5035941;28;20215;-89
2021/11/20 04:33:51;;;;;;;46.90;23.33;;;10.90;93.60;;;;;;5038450;28;20233;-89
2021/11/20 04:36:17;;;;;;;47.97;23.57;;;11.00;93.60;;;;;;5057515;28;20224;-89
2021/11/20 04:38:43;;;;;;;57.07;25.93;;;11.00;93.60;;;;;;5057967;28;20206;-89
2021/11/20 04:41:09;;;;;;;48.63;24.73;;;11.00;93.60;;;;;;5057863;28;20172;-89
2021/11/20 04:43:35;;;;;;;57.40;25.77;;;11.00;93.60;;;;;;5039834;28;20229;-89
2021/11/20 04:46:02;;;;;;;41.33;21.53;;;11.00;93.60;;;;;;5039935;28;20192;-89
2021/11/20 04:48:28;;;;;;;34.93;19.83;;;11.00;93.50;;;;;;5057842;28;20180;-89
2021/11/20 04:50:56;;;;;;;39.23;20.87;;;10.90;93.50;;;;;;5058380;28;20229;-89
2021/11/20 04:53:23;;;;;;;39.97;22.27;;;10.90;93.60;;;;;;5057794;28;20180;-89
2021/11/20 04:55:49;;;;;;;52.00;23.33;;;10.90;93.60;;;;;;5057471;28;20254;-89
2021/11/20 04:58:15;;;;;;;44.10;20.80;;;10.90;93.60;;;;;;5057379;28;20199;-89
2021/11/20 05:00:50;;;;;;;48.00;20.03;;;10.90;93.60;;;;;;5057542;28;20196;-89
2021/11/20 05:03:18;;;;;;;49.63;19.03;;;10.90;93.60;;;;;;5039280;28;20159;-89
2021/11/20 05:05:46;;;;;;;47.60;21.30;;;10.90;93.60;;;;;;5056963;28;20188;-89
2021/11/20 05:08:12;;;;;;;45.10;18.97;;;10.90;93.50;;;;;;5039253;28;20531;-89
2021/11/20 05:10:40;;;;;;;33.03;16.97;;;10.90;93.50;;;;;;5039236;28;20219;-89
2021/11/20 05:13:06;;;;;;;43.67;20.70;;;10.90;93.40;;;;;;5039022;28;20191;-89
2021/11/20 05:15:34;;;;;;;38.40;20.90;;;10.90;93.40;;;;;;5039064;28;20310;-89
2021/11/20 05:18:00;;;;;;;36.10;19.27;;;10.90;93.40;;;;;;5039299;28;20211;-89
2021/11/20 05:20:26;;;;;;;47.57;21.43;;;10.90;93.30;;;;;;5057298;28;20180;-89
2021/11/20 05:22:52;;;;;;;42.43;19.33;;;10.90;93.20;;;;;;5056969;28;20547;-89
2021/11/20 05:25:20;;;;;;;33.80;17.43;;;10.90;93.20;;;;;;5038887;28;20187;-89
2021/11/20 05:27:48;;;;;;;48.30;19.87;;;10.90;93.10;;;;;;5039166;28;20176;-89
2021/11/20 05:30:20;;;;;;;29.53;17.20;;;10.80;93.10;;;;;;5056660;28;20172;-89
2021/11/20 05:32:47;;;;;;;35.23;18.33;;;10.80;93.10;;;;;;5039182;28;20310;-89
2021/11/20 05:35:17;;;;;;;33.47;17.30;;;10.80;93.10;;;;;;5056529;28;20180;-89
2021/11/20 05:37:44;;;;;;;33.03;17.13;;;10.80;93.10;;;;;;5056901;28;20573;-89
2021/11/20 05:40:13;;;;;;;24.73;13.43;;;10.80;93.00;;;;;;5039063;28;20172;-89
2021/11/20 05:42:46;;;;;;;29.43;14.57;;;10.90;93.00;;;;;;5056531;28;20587;-89
2021/11/20 05:45:13;;;;;;;32.57;15.27;;;10.80;92.90;;;;;;5038340;28;20172;-89
2021/11/20 05:47:39;;;;;;;37.00;17.90;;;10.80;92.90;;;;;;5056519;28;20644;-89
2021/11/20 05:50:07;;;;;;;33.23;16.27;;;10.80;92.90;;;;;;5056607;28;20183;-89
2021/11/20 05:52:33;;;;;;;19.83;12.60;;;10.80;92.80;;;;;;5038380;28;20199;-89
2021/11/20 05:54:58;;;;;;;27.93;15.80;;;10.80;92.80;;;;;;5038627;28;20176;-89
2021/11/20 05:57:24;;;;;;;28.70;17.43;;;10.80;92.80;;;;;;5038489;28;20196;-89
2021/11/20 05:59:49;;;;;;;29.17;17.00;;;10.90;92.80;;;;;;5039012;28;20540;-89
2021/11/20 06:02:17;;;;;;;31.00;17.17;;;10.80;92.80;;;;;;5038382;28;20175;-89
2021/11/20 06:04:44;;;;;;;23.97;13.00;;;10.80;92.80;;;;;;5038531;28;20175;-89
2021/11/20 06:07:11;;;;;;;26.53;16.37;;;10.80;92.80;;;;;;5056166;28;20180;-89
2021/11/20 06:09:38;;;;;;;32.57;17.47;;;10.80;92.80;;;;;;5038829;28;20597;-89
2021/11/20 06:12:04;;;;;;;36.40;17.07;;;10.80;92.90;;;;;;5038549;28;20573;-89
2021/11/20 06:14:30;;;;;;;28.60;15.97;;;10.80;92.80;;;;;;5056031;28;20636;-89
2021/11/20 06:16:55;;;;;;;29.83;16.23;;;10.80;92.80;;;;;;5037860;28;20230;-89
2021/11/20 06:19:21;;;;;;;27.57;15.53;;;10.70;92.80;;;;;;5037822;28;20279;-89
2021/11/20 06:21:47;;;;;;;29.73;16.43;;;10.80;92.90;;;;;;5037976;28;20207;-89
2021/11/20 06:24:13;;;;;;;35.27;16.30;;;10.80;92.90;;;;;;5037842;28;20239;-89
2021/11/20 06:26:39;;;;;;;31.87;15.77;;;10.80;92.90;;;;;;5037865;28;20750;-89
2021/11/20 06:29:05;;;;;;;23.27;16.00;;;10.80;92.90;;;;;;5037725;28;20203;-89
2021/11/20 06:31:31;;;;;;;28.80;16.50;;;10.80;92.80;;;;;;5038052;28;20259;-89
2021/11/20 06:33:58;;;;;;;29.57;15.40;;;10.80;92.80;;;;;;5037852;28;20226;-89
2021/11/20 06:36:24;;;;;;;37.17;19.43;;;10.80;92.90;;;;;;5037987;28;20216;-89
2021/11/20 06:38:50;;;;;;;35.40;18.33;;;10.80;92.90;;;;;;5055424;28;20288;-89
2021/11/20 06:41:16;;;;;;;36.53;19.17;;;10.80;92.80;;;;;;5037855;28;20231;-89
2021/11/20 06:43:41;;;;;;;26.50;16.83;;;10.80;92.70;;;;;;5055303;28;20191;-89
2021/11/20 06:46:12;;;;;;;45.67;20.73;;;10.80;92.70;;;;;;5055760;28;20203;-89
2021/11/20 06:48:39;;;;;;;38.23;19.90;;;10.80;92.70;;;;;;5055279;28;20179;-89
2021/11/20 06:51:06;;;;;;;41.60;19.37;;;10.80;92.80;;;;;;5055622;28;20187;-89
2021/11/20 06:53:32;;;;;;;30.30;17.17;;;10.80;92.70;;;;;;5037323;28;20195;-89
2021/11/20 06:55:59;;;;;;;27.80;16.63;;;10.80;92.60;;;;;;5037305;28;20204;-89
2021/11/20 07:01:04;;;;;;;29.27;17.90;;;10.90;92.60;;;;;;5055139;28;20163;-89
2021/11/20 07:03:45;;;;;;;36.13;19.27;;;10.90;92.60;;;;;;5055269;28;20172;-89
2021/11/20 07:06:15;;;;;;;35.93;18.03;;;10.90;92.60;;;;;;5055022;28;20567;-89
2021/11/20 07:08:42;;;;;;;35.23;17.20;;;10.90;92.50;;;;;;5055422;28;20176;-89
2021/11/20 07:11:08;;;;;;;35.50;18.83;;;10.90;92.50;;;;;;5037067;28;20187;-89
2021/11/20 07:13:34;;;;;;;33.93;19.33;;;10.90;92.50;;;;;;5037172;28;20230;-89
2021/11/20 07:16:00;;;;;;;38.37;18.70;;;10.90;92.60;;;;;;5037330;28;20196;-89
2021/11/20 07:18:26;;;;;;;25.20;17.27;;;10.90;92.60;;;;;;5037493;28;20200;-89
2021/11/20 07:20:53;;;;;;;34.77;17.97;;;10.90;92.50;;;;;;5036882;28;20180;-89
2021/11/20 07:23:19;;;;;;;27.37;16.00;;;10.90;92.50;;;;;;5054901;28;20172;-89
2021/11/20 07:25:45;;;;;;;33.30;18.70;;;10.90;92.50;;;;;;5054673;28;20192;-89
2021/11/20 07:28:12;;;;;;;31.70;18.03;;;10.90;92.60;;;;;;5054491;28;20698;-89
2021/11/20 07:30:39;;;;;;;40.87;19.50;;;10.90;92.50;;;;;;5036685;28;20195;-89
2021/11/20 07:33:06;;;;;;;32.43;18.17;;;10.90;92.50;;;;;;5036853;28;20179;-89
2021/11/20 07:35:45;;;;;;;34.20;18.17;;;11.00;92.40;;;;;;5036544;28;20311;-89
2021/11/20 07:38:14;;;;;;;32.40;18.93;;;11.00;92.40;;;;;;5054967;28;20619;-89
2021/11/20 07:40:41;;;;;;;38.40;19.03;;;11.00;92.40;;;;;;5054390;28;20172;-89
2021/11/20 07:43:08;;;;;;;36.80;19.73;;;11.00;92.50;;;;;;5036766;28;20207;-89
2021/11/20 07:45:34;;;;;;;35.23;20.83;;;11.00;92.50;;;;;;5054388;28;20192;-89
2021/11/20 07:48:10;;;;;;;31.53;18.97;;;11.00;92.40;;;;;;5036545;28;20532;-89
2021/11/20 07:50:37;;;;;;;32.97;19.77;;;11.00;92.50;;;;;;5054691;28;20248;-89
2021/11/20 07:53:02;;;;;;;33.87;20.20;;;11.00;92.50;;;;;;5036619;28;20210;-89
2021/11/20 07:55:28;;;;;;;35.73;20.03;;;11.00;92.50;;;;;;5054439;28;20195;-89
2021/11/20 07:57:53;;;;;;;29.73;18.67;;;10.90;92.50;;;;;;5036685;28;20208;-89
2021/11/20 08:00:21;;;;;;;35.73;16.93;;;10.90;92.50;;;;;;5054317;28;20226;-89
2021/11/20 08:02:47;;;;;;;33.90;19.63;;;10.90;92.40;;;;;;5036560;28;20263;-88
2021/11/20 08:05:13;;;;;;;29.47;15.13;;;10.90;92.50;;;;;;5036478;28;20168;-89
2021/11/20 08:07:40;;;;;;;36.37;20.57;;;10.90;92.30;;;;;;5036741;28;20226;-89
2021/11/20 08:10:11;;;;;;;34.00;18.40;;;10.90;92.20;;;;;;5040662;28;20172;-89
2021/11/20 08:12:37;;;;;;;28.63;15.83;;;11.00;92.30;;;;;;5041026;28;20684;-89
2021/11/20 08:15:04;;;;;;;31.83;21.17;;;11.00;92.30;;;;;;5040906;28;20310;-89
2021/11/20 08:17:29;;;;;;;34.07;19.23;;;11.00;92.20;;;;;;5040720;28;20553;-89
2021/11/20 08:19:55;;;;;;;31.60;20.70;;;11.00;92.10;;;;;;5040528;28;20180;-89
2021/11/20 08:22:21;;;;;;;29.67;18.13;;;11.00;92.20;;;;;;5058593;28;20168;-89
2021/11/20 08:24:46;;;;;;;29.00;17.63;;;11.00;92.00;;;;;;5058060;28;20179;-89
2021/11/20 08:27:13;;;;;;;33.60;17.80;;;11.00;92.00;;;;;;5040689;28;20192;-89
2021/11/20 08:29:39;;;;;;;31.13;17.70;;;11.00;91.90;;;;;;5041130;28;20245;-89
2021/11/20 08:32:06;;;;;;;26.83;15.70;;;11.00;91.50;;;;;;5041356;28;20184;-90
2021/11/20 08:34:32;;;;;;;24.27;13.07;;;11.00;91.50;;;;;;5041238;28;20195;-89
2021/11/20 08:37:01;;;;;;;26.67;14.83;;;11.00;91.40;;;;;;5040772;28;20286;-89
2021/11/20 08:39:29;;;;;;;19.23;12.57;;;11.10;91.20;;;;;;5041232;28;20212;-89
2021/11/20 08:41:55;;;;;;;24.43;14.60;;;11.10;91.10;;;;;;5040958;28;20207;-89
2021/11/20 08:44:21;;;;;;;24.50;14.20;;;11.10;91.20;;;;;;5040970;28;20172;-89
2021/11/20 08:46:47;;;;;;;19.13;13.20;;;11.10;91.10;;;;;;5040544;28;20261;-89
2021/11/20 08:49:14;;;;;;;17.67;10.47;;;11.10;90.80;;;;;;5058783;28;20183;-89
2021/11/20 08:51:41;;;;;;;20.60;12.13;;;11.20;90.40;;;;;;5040912;28;20184;-89
2021/11/20 08:54:07;;;;;;;14.10;9.43;;;11.10;90.60;;;;;;5040361;28;20687;-89
2021/11/20 08:56:38;;;;;;;15.30;10.37;;;11.10;90.70;;;;;;5058629;28;20214;-90
2021/11/20 08:59:05;;;;;;;24.87;11.47;;;11.10;90.50;;;;;;5040636;28;20227;-89
2021/11/20 09:01:35;;;;;;;18.90;10.80;;;11.20;90.60;;;;;;5058622;28;20203;-90
2021/11/20 09:04:12;;;;;;;14.00;8.73;;;11.20;90.30;;;;;;5040407;28;20172;-90
2021/11/20 09:06:59;;;;;;;23.93;11.33;;;11.20;90.40;;;;;;5057547;28;20191;-89
2021/11/20 09:09:48;;;;;;;17.87;10.50;;;11.20;90.30;;;;;;5039587;28;20211;-89
2021/11/20 09:12:20;;;;;;;26.43;11.10;;;11.20;90.20;;;;;;5039427;28;20173;-89
2021/11/20 09:14:58;;;;;;;15.10;9.60;;;11.20;90.10;;;;;;5039904;28;20270;-89
2021/11/20 09:17:24;;;;;;;16.03;10.53;;;11.20;90.10;;;;;;5040226;28;20196;-89
2021/11/20 09:19:51;;;;;;;19.00;9.70;;;11.20;90.00;;;;;;5038470;28;20211;-89
2021/11/20 09:22:17;;;;;;;18.13;9.53;;;11.20;90.00;;;;;;5057515;28;20164;-89
2021/11/20 09:24:45;;;;;;;17.97;10.03;;;11.20;90.00;;;;;;5039665;28;20197;-88
2021/11/20 09:27:12;;;;;;;23.10;9.77;;;11.20;90.00;;;;;;5057402;28;20196;-89
2021/11/20 09:29:39;;;;;;;19.27;10.97;;;11.20;89.90;;;;;;5057207;28;20233;-89
2021/11/20 09:32:07;;;;;;;17.27;10.07;;;11.20;89.90;;;;;;5039558;28;20279;-90
2021/11/20 09:34:32;;;;;;;18.03;10.73;;;11.20;89.90;;;;;;5057235;28;20215;-89
2021/11/20 09:36:59;;;;;;;12.20;8.77;;;11.20;89.90;;;;;;5057157;28;20211;-89
2021/11/20 09:39:28;;;;;;;15.77;9.33;;;11.20;89.80;;;;;;5039165;28;20259;-89
2021/11/20 09:42:38;;;;;;;14.77;9.23;;;11.20;89.80;;;;;;5039514;28;20175;-89
2021/11/20 09:45:10;;;;;;;14.70;9.20;;;11.20;89.80;;;;;;5057413;28;20168;-89
2021/11/20 09:47:42;;;;;;;15.77;9.57;;;11.20;89.70;;;;;;5039149;28;20168;-89
2021/11/20 09:50:13;;;;;;;20.23;9.80;;;11.20;89.80;;;;;;5057444;28;20156;-89
2021/11/20 09:52:41;;;;;;;10.30;9.03;;;11.20;89.70;;;;;;5057210;28;20159;-89
2021/11/20 09:55:09;;;;;;;15.93;9.97;;;11.30;89.80;;;;;;5056821;28;20540;-90
2021/11/20 09:57:42;;;;;;;14.63;9.20;;;11.30;89.80;;;;;;5038641;28;20260;-89
2021/11/20 10:00:27;;;;;;;15.30;9.60;;;11.20;89.50;;;;;;5038596;28;20632;-90
2021/11/20 10:02:57;;;;;;;18.47;11.77;;;11.30;89.50;;;;;;5039044;28;20194;-89
2021/11/20 10:05:35;;;;;;;22.13;11.90;;;11.30;89.40;;;;;;5056842;28;20160;-89
2021/11/20 10:08:07;;;;;;;16.77;11.63;;;11.30;89.30;;;;;;5038596;28;20172;-89
2021/11/20 10:10:41;;;;;;;15.50;11.47;;;11.30;89.70;;;;;;5057028;28;20210;-90
2021/11/20 10:13:15;;;;;;;12.37;8.93;;;11.30;89.70;;;;;;5057017;28;20168;-89
2021/11/20 10:15:58;;;;;;;17.33;11.80;;;11.30;89.90;;;;;;5038431;28;20203;-90
2021/11/20 10:18:37;;;;;;;18.47;12.47;;;11.30;89.80;;;;;;5038956;28;20196;-90
2021/11/20 10:21:09;;;;;;;15.73;11.43;;;11.20;89.90;;;;;;5056778;28;20160;-89
2021/11/20 10:24:13;;;;;;;19.13;11.60;;;11.20;89.70;;;;;;5038493;28;20172;-89
2021/11/20 10:27:01;;;;;;;19.40;12.40;;;11.20;89.70;;;;;;5038504;28;20196;-90
2021/11/20 10:29:59;;;;;;;12.57;9.53;;;11.20;89.80;;;;;;5038548;28;20172;-89
2021/11/20 10:32:33;;;;;;;13.80;10.67;;;11.20;89.50;;;;;;5056151;28;20199;-90
2021/11/20 10:35:23;;;;;;;14.57;12.20;;;11.20;89.50;;;;;;5038242;28;20641;-89
2021/11/20 10:38:03;;;;;;;18.43;11.93;;;11.20;89.50;;;;;;5039087;28;20180;-89
2021/11/20 10:40:38;;;;;;;18.90;12.70;;;11.20;89.30;;;;;;5056468;28;20179;-90
2021/11/20 10:43:16;;;;;;;20.10;13.00;;;11.20;89.20;;;;;;5038720;28;20168;-90
2021/11/20 10:45:47;;;;;;;13.90;12.40;;;11.20;89.40;;;;;;5056098;28;20255;-89
2021/11/20 10:48:36;;;;;;;15.47;11.50;;;11.20;89.40;;;;;;5038283;28;20195;-89
2021/11/20 10:51:31;;;;;;;17.80;11.50;;;11.20;89.10;;;;;;5037995;28;20172;-89
2021/11/20 10:54:09;;;;;;;17.17;11.23;;;11.20;89.10;;;;;;5038412;28;20255;-89
2021/11/20 10:56:56;;;;;;;14.67;11.00;;;11.20;89.30;;;;;;5037072;28;20202;-90
2021/11/20 10:59:43;;;;;;;13.30;10.53;;;11.20;89.00;;;;;;5037311;28;20191;-89
2021/11/20 11:02:25;;;;;;;14.70;9.53;;;11.20;89.00;;;;;;5055264;28;20156;-89
2021/11/20 11:05:26;;;;;;;17.67;11.10;;;11.20;88.90;;;;;;5037568;28;20172;-89
2021/11/20 11:08:12;;;;;;;16.97;10.30;;;11.20;89.00;;;;;;5036555;28;20174;-89
2021/11/20 11:10:45;;;;;;;11.83;10.00;;;11.20;88.70;;;;;;5007338;28;20192;-90
2021/11/20 11:13:35;;;;;;;16.10;11.77;;;11.20;88.50;;;;;;5037221;28;20199;-90
2021/11/20 11:16:34;;;;;;;23.13;10.90;;;11.20;88.90;;;;;;5037673;28;20656;-90
2021/11/20 11:19:13;;;;;;;18.03;9.87;;;11.20;88.70;;;;;;5054822;28;20196;-90
2021/11/20 11:21:44;;;;;;;14.10;10.80;;;11.20;88.50;;;;;;5055468;28;20189;-90
2021/11/20 11:24:16;;;;;;;15.40;10.77;;;11.20;88.50;;;;;;5054934;28;20168;-89
2021/11/20 11:26:54;;;;;;;14.73;11.57;;;11.30;88.30;;;;;;5037006;28;20207;-89
2021/11/20 11:29:34;;;;;;;13.27;11.73;;;11.20;88.30;;;;;;5054505;28;20168;-89
2021/11/20 11:32:00;;;;;;;14.63;12.37;;;11.20;88.60;;;;;;5036625;28;20183;-90
2021/11/20 11:34:55;;;;;;;17.97;13.70;;;11.20;88.50;;;;;;5036648;28;20275;-90
2021/11/20 11:37:42;;;;;;;18.20;15.53;;;11.20;88.70;;;;;;5036525;28;20571;-89
2021/11/20 11:40:16;;;;;;;18.37;13.80;;;11.20;88.60;;;;;;5036927;28;20179;-90
2021/11/20 11:42:45;;;;;;;18.97;13.37;;;11.20;88.60;;;;;;5036491;28;20176;-89
2021/11/20 11:45:38;;;;;;;11.93;10.20;;;11.30;88.20;;;;;;5058520;28;20171;-89
2021/11/20 11:48:27;;;;;;;15.30;13.70;;;11.30;88.00;;;;;;5040292;28;20195;-89
2021/11/20 11:51:30;;;;;;;18.20;13.03;;;11.30;88.10;;;;;;5058372;28;20163;-89
2021/11/20 11:54:11;;;;;;;22.43;13.73;;;11.20;87.90;;;;;;5040777;28;20198;-90
2021/11/20 11:56:54;;;;;;;17.20;13.13;;;11.20;88.20;;;;;;5040902;28;20200;-90
2021/11/20 11:59:25;;;;;;;16.50;13.17;;;11.20;88.20;;;;;;5040898;28;20192;-89
2021/11/20 12:01:53;;;;;;;21.83;13.57;;;11.20;88.00;;;;;;5041140;28;20183;-89
2021/11/20 12:04:40;;;;;;;18.20;14.53;;;11.20;88.10;;;;;;5040891;28;20168;-90
2021/11/20 12:07:24;;;;;;;16.93;13.63;;;11.20;87.70;;;;;;5058664;28;20611;-90
2021/11/20 12:09:52;;;;;;;20.80;15.43;;;11.30;87.80;;;;;;5040922;28;20203;-90
2021/11/20 12:12:31;;;;;;;24.07;14.87;;;11.30;87.90;;;;;;5058235;28;20186;-90
2021/11/20 12:15:32;;;;;;;19.90;15.83;;;11.20;88.10;;;;;;5058776;28;20168;-90
2021/11/20 12:18:01;;;;;;;19.07;13.63;;;11.30;88.00;;;;;;5058528;28;20194;-89
2021/11/20 12:21:02;;;;;;;20.47;14.97;;;11.20;87.70;;;;;;5040528;28;20258;-90
2021/11/20 12:23:48;;;;;;;20.67;16.87;;;11.20;88.20;;;;;;5058463;28;20156;-89
2021/11/20 12:26:51;;;;;;;19.77;14.80;;;11.20;88.20;;;;;;5058640;28;20210;-89
2021/11/20 12:29:26;;;;;;;19.23;15.27;;;11.20;88.10;;;;;;5040821;28;20659;-89
2021/11/20 12:32:19;;;;;;;26.00;16.70;;;11.20;88.20;;;;;;5040677;28;20525;-89
2021/11/20 12:35:18;;;;;;;25.90;18.23;;;11.20;88.10;;;;;;5040279;28;20196;-89
2021/11/20 12:38:04;;;;;;;18.70;15.97;;;11.20;88.00;;;;;;5040182;28;20743;-89
2021/11/20 12:40:50;;;;;;;22.57;17.23;;;11.20;87.60;;;;;;5058091;28;20155;-89
2021/11/20 12:44:00;;;;;;;21.20;16.10;;;11.20;88.20;;;;;;5057919;28;20153;-89
2021/11/20 12:46:54;;;;;;;19.13;16.80;;;11.20;87.80;;;;;;5058570;28;20210;-89
2021/11/20 12:49:58;;;;;;;25.60;19.63;;;11.20;88.20;;;;;;5057858;28;20164;-89
2021/11/20 12:52:26;;;;;;;21.23;16.90;;;11.20;88.20;;;;;;4996641;28;20185;-89
2021/11/20 12:55:30;;;;;;;24.23;18.90;;;11.10;88.40;;;;;;5046018;28;20192;-89
2021/11/20 12:58:16;;;;;;;25.57;20.03;;;11.10;88.50;;;;;;5057611;28;20163;-89